Terminal Aerodrome Forecast
Issued by NWS Nashville, TN

Home | Current Version | Previous Version | Text Only | Print | Product List | Glossary On
Versions: 1 2 3 4 5 6 7 8 9 10 11 12 13 14 15 16 17 18 19
000
FTUS44 KOHX 262300
TAFCSV
TAF
KCSV 262323Z 2700/2724 17002KT P6SM SCT120 BKN200
     FM270600 18002KT P6SM SCT060 BKN120
     FM271200 17004KT P6SM SCT060 BKN120
     FM271900 18004KT P6SM SCT020 BKN040 PROB30 2720/2724 5SM -SHRA
      BKN020=

USA.gov is the U.S. government's official web portal to all federal, state and local government web resources and services.